sensor_id;sensor_type;location;lat;lon;timestamp;P1;durP1;ratioP1;P2;durP2;ratioP2
2396;SDS011;1209;48.410;9.054;2022-11-14T00:00:23;12.70;;;7.82;;
2396;SDS011;1209;48.410;9.054;2022-11-14T00:02:49;12.32;;;7.97;;
2396;SDS011;1209;48.410;9.054;2022-11-14T00:05:15;13.27;;;8.37;;
2396;SDS011;1209;48.410;9.054;2022-11-14T00:07:40;15.60;;;8.90;;
2396;SDS011;1209;48.410;9.054;2022-11-14T00:10:06;8.80;;;7.23;;
2396;SDS011;1209;48.410;9.054;2022-11-14T00:12:31;12.50;;;8.20;;
2396;SDS011;1209;48.410;9.054;2022-11-14T00:14:58;15.13;;;8.18;;
2396;SDS011;1209;48.410;9.054;2022-11-14T00:17:23;12.60;;;7.70;;
2396;SDS011;1209;48.410;9.054;2022-11-14T00:19:48;11.03;;;6.90;;
2396;SDS011;1209;48.410;9.054;2022-11-14T00:22:14;14.00;;;7.93;;
2396;SDS011;1209;48.410;9.054;2022-11-14T00:24:39;9.93;;;7.07;;
2396;SDS011;1209;48.410;9.054;2022-11-14T00:27:04;13.77;;;7.67;;
2396;SDS011;1209;48.410;9.054;2022-11-14T00:29:30;13.97;;;7.77;;
2396;SDS011;1209;48.410;9.054;2022-11-14T00:31:55;12.50;;;7.20;;
2396;SDS011;1209;48.410;9.054;2022-11-14T00:34:20;10.77;;;6.10;;
2396;SDS011;1209;48.410;9.054;2022-11-14T00:36:45;10.23;;;7.23;;
2396;SDS011;1209;48.410;9.054;2022-11-14T00:39:15;8.93;;;6.40;;
2396;SDS011;1209;48.410;9.054;2022-11-14T00:41:40;9.97;;;6.73;;
2396;SDS011;1209;48.410;9.054;2022-11-14T00:44:06;17.97;;;7.80;;
2396;SDS011;1209;48.410;9.054;2022-11-14T00:46:32;10.63;;;7.70;;
2396;SDS011;1209;48.410;9.054;2022-11-14T00:48:58;12.90;;;7.25;;
2396;SDS011;1209;48.410;9.054;2022-11-14T00:51:23;12.17;;;6.90;;
2396;SDS011;1209;48.410;9.054;2022-11-14T00:53:48;13.90;;;7.30;;
2396;SDS011;1209;48.410;9.054;2022-11-14T00:56:14;12.67;;;7.30;;
2396;SDS011;1209;48.410;9.054;2022-11-14T00:58:39;12.77;;;6.80;;
2396;SDS011;1209;48.410;9.054;2022-11-14T01:01:05;10.90;;;6.97;;
2396;SDS011;1209;48.410;9.054;2022-11-14T01:03:30;9.53;;;6.33;;
2396;SDS011;1209;48.410;9.054;2022-11-14T01:05:55;10.23;;;6.90;;
2396;SDS011;1209;48.410;9.054;2022-11-14T01:08:21;12.00;;;7.20;;
2396;SDS011;1209;48.410;9.054;2022-11-14T01:10:47;11.83;;;6.10;;
2396;SDS011;1209;48.410;9.054;2022-11-14T01:13:15;11.70;;;6.43;;
2396;SDS011;1209;48.410;9.054;2022-11-14T01:15:43;11.32;;;7.28;;
2396;SDS011;1209;48.410;9.054;2022-11-14T01:18:10;11.05;;;6.50;;
2396;SDS011;1209;48.410;9.054;2022-11-14T01:20:37;8.25;;;5.85;;
2396;SDS011;1209;48.410;9.054;2022-11-14T01:23:04;7.35;;;5.75;;
2396;SDS011;1209;48.410;9.054;2022-11-14T01:25:31;8.97;;;5.90;;
2396;SDS011;1209;48.410;9.054;2022-11-14T01:27:57;7.20;;;6.18;;
2396;SDS011;1209;48.410;9.054;2022-11-14T01:30:22;9.07;;;5.67;;
2396;SDS011;1209;48.410;9.054;2022-11-14T01:32:48;7.97;;;5.87;;
2396;SDS011;1209;48.410;9.054;2022-11-14T01:35:13;10.77;;;6.40;;
2396;SDS011;1209;48.410;9.054;2022-11-14T01:37:38;5.97;;;5.20;;
2396;SDS011;1209;48.410;9.054;2022-11-14T01:40:04;7.00;;;5.60;;
2396;SDS011;1209;48.410;9.054;2022-11-14T01:42:29;8.63;;;5.63;;
2396;SDS011;1209;48.410;9.054;2022-11-14T01:44:54;8.83;;;5.57;;
2396;SDS011;1209;48.410;9.054;2022-11-14T01:47:22;9.47;;;5.23;;
2396;SDS011;1209;48.410;9.054;2022-11-14T01:49:54;8.00;;;4.78;;
2396;SDS011;1209;48.410;9.054;2022-11-14T01:52:43;9.73;;;7.00;;
2396;SDS011;1209;48.410;9.054;2022-11-14T01:55:10;9.13;;;4.97;;
2396;SDS011;1209;48.410;9.054;2022-11-14T01:57:36;7.30;;;5.10;;
2396;SDS011;1209;48.410;9.054;2022-11-14T02:00:06;10.25;;;6.93;;
2396;SDS011;1209;48.410;9.054;2022-11-14T02:02:33;7.47;;;6.40;;
2396;SDS011;1209;48.410;9.054;2022-11-14T02:05:00;8.00;;;5.33;;
2396;SDS011;1209;48.410;9.054;2022-11-14T02:07:30;7.28;;;4.72;;
2396;SDS011;1209;48.410;9.054;2022-11-14T02:09:58;8.65;;;6.35;;
2396;SDS011;1209;48.410;9.054;2022-11-14T02:12:27;7.57;;;5.10;;
2396;SDS011;1209;48.410;9.054;2022-11-14T02:14:53;8.63;;;5.50;;
2396;SDS011;1209;48.410;9.054;2022-11-14T02:17:22;8.02;;;5.65;;
2396;SDS011;1209;48.410;9.054;2022-11-14T02:22:36;7.57;;;5.10;;
2396;SDS011;1209;48.410;9.054;2022-11-14T02:25:02;5.63;;;4.88;;
2396;SDS011;1209;48.410;9.054;2022-11-14T02:27:28;7.77;;;4.87;;
2396;SDS011;1209;48.410;9.054;2022-11-14T02:30:05;5.50;;;4.65;;
2396;SDS011;1209;48.410;9.054;2022-11-14T02:32:32;11.57;;;5.10;;
2396;SDS011;1209;48.410;9.054;2022-11-14T02:34:57;8.23;;;5.37;;
2396;SDS011;1209;48.410;9.054;2022-11-14T02:37:22;6.27;;;4.30;;
2396;SDS011;1209;48.410;9.054;2022-11-14T02:39:48;8.93;;;4.63;;
2396;SDS011;1209;48.410;9.054;2022-11-14T02:42:13;6.37;;;4.93;;
2396;SDS011;1209;48.410;9.054;2022-11-14T02:44:38;4.80;;;4.17;;
2396;SDS011;1209;48.410;9.054;2022-11-14T02:47:03;5.60;;;4.40;;
2396;SDS011;1209;48.410;9.054;2022-11-14T02:49:29;6.67;;;5.30;;
2396;SDS011;1209;48.410;9.054;2022-11-14T02:51:54;6.00;;;5.30;;
2396;SDS011;1209;48.410;9.054;2022-11-14T02:54:19;6.10;;;4.10;;
2396;SDS011;1209;48.410;9.054;2022-11-14T02:56:45;7.60;;;4.63;;
2396;SDS011;1209;48.410;9.054;2022-11-14T02:59:10;5.60;;;4.17;;
2396;SDS011;1209;48.410;9.054;2022-11-14T03:01:35;6.30;;;5.20;;
2396;SDS011;1209;48.410;9.054;2022-11-14T03:04:01;7.60;;;4.47;;
2396;SDS011;1209;48.410;9.054;2022-11-14T03:06:26;7.20;;;3.77;;
2396;SDS011;1209;48.410;9.054;2022-11-14T03:08:51;6.20;;;4.70;;
2396;SDS011;1209;48.410;9.054;2022-11-14T03:11:16;9.73;;;4.87;;
2396;SDS011;1209;48.410;9.054;2022-11-14T03:13:42;4.87;;;4.10;;
2396;SDS011;1209;48.410;9.054;2022-11-14T03:16:08;8.77;;;5.20;;
2396;SDS011;1209;48.410;9.054;2022-11-14T03:18:34;6.97;;;3.70;;
2396;SDS011;1209;48.410;9.054;2022-11-14T03:21:03;4.33;;;3.93;;
2396;SDS011;1209;48.410;9.054;2022-11-14T03:23:32;8.80;;;4.75;;
2396;SDS011;1209;48.410;9.054;2022-11-14T03:26:01;5.90;;;3.83;;
2396;SDS011;1209;48.410;9.054;2022-11-14T03:28:28;5.07;;;3.95;;
2396;SDS011;1209;48.410;9.054;2022-11-14T03:30:54;5.43;;;4.43;;
2396;SDS011;1209;48.410;9.054;2022-11-14T03:33:19;6.07;;;3.63;;
2396;SDS011;1209;48.410;9.054;2022-11-14T03:35:44;5.50;;;4.83;;
2396;SDS011;1209;48.410;9.054;2022-11-14T03:38:10;4.83;;;4.20;;
2396;SDS011;1209;48.410;9.054;2022-11-14T03:40:39;2.90;;;2.67;;
2396;SDS011;1209;48.410;9.054;2022-11-14T03:43:04;6.45;;;4.55;;
2396;SDS011;1209;48.410;9.054;2022-11-14T03:45:30;5.27;;;4.30;;
2396;SDS011;1209;48.410;9.054;2022-11-14T03:47:55;4.70;;;3.83;;
2396;SDS011;1209;48.410;9.054;2022-11-14T03:50:21;4.77;;;3.20;;
2396;SDS011;1209;48.410;9.054;2022-11-14T03:52:49;4.70;;;3.87;;
2396;SDS011;1209;48.410;9.054;2022-11-14T03:55:14;7.85;;;4.72;;
2396;SDS011;1209;48.410;9.054;2022-11-14T03:57:39;6.00;;;4.17;;
2396;SDS011;1209;48.410;9.054;2022-11-14T04:00:05;5.47;;;3.73;;
2396;SDS011;1209;48.410;9.054;2022-11-14T04:02:31;6.40;;;3.95;;
2396;SDS011;1209;48.410;9.054;2022-11-14T04:04:56;5.53;;;4.37;;
2396;SDS011;1209;48.410;9.054;2022-11-14T04:07:21;4.77;;;4.03;;
2396;SDS011;1209;48.410;9.054;2022-11-14T04:09:47;6.30;;;4.30;;
2396;SDS011;1209;48.410;9.054;2022-11-14T04:12:12;5.30;;;4.20;;
2396;SDS011;1209;48.410;9.054;2022-11-14T04:14:38;4.97;;;3.63;;
2396;SDS011;1209;48.410;9.054;2022-11-14T04:17:03;7.43;;;5.00;;
2396;SDS011;1209;48.410;9.054;2022-11-14T04:19:28;9.17;;;4.73;;
2396;SDS011;1209;48.410;9.054;2022-11-14T04:21:54;5.07;;;4.13;;
2396;SDS011;1209;48.410;9.054;2022-11-14T04:24:19;5.90;;;4.40;;
2396;SDS011;1209;48.410;9.054;2022-11-14T04:26:44;4.20;;;3.73;;
2396;SDS011;1209;48.410;9.054;2022-11-14T04:29:09;3.73;;;3.30;;
2396;SDS011;1209;48.410;9.054;2022-11-14T04:31:35;4.63;;;3.70;;
2396;SDS011;1209;48.410;9.054;2022-11-14T04:34:00;13.77;;;4.70;;
2396;SDS011;1209;48.410;9.054;2022-11-14T04:36:25;4.57;;;3.33;;
2396;SDS011;1209;48.410;9.054;2022-11-14T04:38:51;4.83;;;4.10;;
2396;SDS011;1209;48.410;9.054;2022-11-14T04:41:16;6.23;;;4.10;;
2396;SDS011;1209;48.410;9.054;2022-11-14T04:43:41;6.73;;;4.60;;
2396;SDS011;1209;48.410;9.054;2022-11-14T04:46:06;6.87;;;4.97;;
2396;SDS011;1209;48.410;9.054;2022-11-14T04:48:32;5.13;;;4.20;;
2396;SDS011;1209;48.410;9.054;2022-11-14T04:50:57;5.50;;;4.50;;
2396;SDS011;1209;48.410;9.054;2022-11-14T04:53:22;8.00;;;5.33;;
2396;SDS011;1209;48.410;9.054;2022-11-14T04:55:48;6.23;;;4.97;;
2396;SDS011;1209;48.410;9.054;2022-11-14T04:58:13;6.60;;;4.97;;
2396;SDS011;1209;48.410;9.054;2022-11-14T05:00:39;6.13;;;4.70;;
2396;SDS011;1209;48.410;9.054;2022-11-14T05:03:04;6.20;;;5.40;;
2396;SDS011;1209;48.410;9.054;2022-11-14T05:05:31;9.10;;;5.97;;
2396;SDS011;1209;48.410;9.054;2022-11-14T05:07:57;9.18;;;5.20;;
2396;SDS011;1209;48.410;9.054;2022-11-14T05:10:23;9.40;;;6.20;;
2396;SDS011;1209;48.410;9.054;2022-11-14T05:12:51;5.93;;;5.30;;
2396;SDS011;1209;48.410;9.054;2022-11-14T05:15:17;7.63;;;5.32;;
2396;SDS011;1209;48.410;9.054;2022-11-14T05:17:43;6.70;;;5.00;;
2396;SDS011;1209;48.410;9.054;2022-11-14T05:20:08;10.07;;;6.90;;
2396;SDS011;1209;48.410;9.054;2022-11-14T05:22:34;6.35;;;5.75;;
2396;SDS011;1209;48.410;9.054;2022-11-14T05:24:59;6.67;;;4.47;;
2396;SDS011;1209;48.410;9.054;2022-11-14T05:27:25;7.97;;;5.40;;
2396;SDS011;1209;48.410;9.054;2022-11-14T05:29:50;6.40;;;4.97;;
2396;SDS011;1209;48.410;9.054;2022-11-14T05:32:15;6.20;;;4.33;;
2396;SDS011;1209;48.410;9.054;2022-11-14T05:34:40;6.10;;;4.80;;
2396;SDS011;1209;48.410;9.054;2022-11-14T05:37:06;10.57;;;5.77;;
2396;SDS011;1209;48.410;9.054;2022-11-14T05:39:32;6.50;;;4.65;;
2396;SDS011;1209;48.410;9.054;2022-11-14T05:41:57;6.60;;;5.27;;
2396;SDS011;1209;48.410;9.054;2022-11-14T05:44:23;10.10;;;8.10;;
2396;SDS011;1209;48.410;9.054;2022-11-14T05:46:48;5.27;;;4.57;;
2396;SDS011;1209;48.410;9.054;2022-11-14T05:49:13;4.63;;;4.23;;
2396;SDS011;1209;48.410;9.054;2022-11-14T05:51:39;7.00;;;5.10;;
2396;SDS011;1209;48.410;9.054;2022-11-14T05:54:04;6.50;;;4.10;;
2396;SDS011;1209;48.410;9.054;2022-11-14T05:56:29;16.03;;;5.23;;
2396;SDS011;1209;48.410;9.054;2022-11-14T05:58:54;5.73;;;4.30;;
2396;SDS011;1209;48.410;9.054;2022-11-14T06:01:20;8.07;;;5.33;;
2396;SDS011;1209;48.410;9.054;2022-11-14T06:03:46;5.73;;;4.60;;
2396;SDS011;1209;48.410;9.054;2022-11-14T06:06:16;5.75;;;5.15;;
2396;SDS011;1209;48.410;9.054;2022-11-14T06:08:43;6.68;;;4.20;;
2396;SDS011;1209;48.410;9.054;2022-11-14T06:11:10;6.68;;;5.00;;
2396;SDS011;1209;48.410;9.054;2022-11-14T06:13:38;5.53;;;4.15;;
2396;SDS011;1209;48.410;9.054;2022-11-14T06:16:05;7.60;;;4.47;;
2396;SDS011;1209;48.410;9.054;2022-11-14T06:18:33;6.88;;;4.80;;
2396;SDS011;1209;48.410;9.054;2022-11-14T06:21:04;5.53;;;4.57;;
2396;SDS011;1209;48.410;9.054;2022-11-14T06:23:31;4.40;;;4.00;;
2396;SDS011;1209;48.410;9.054;2022-11-14T06:25:57;6.80;;;5.20;;
2396;SDS011;1209;48.410;9.054;2022-11-14T06:28:26;3.80;;;3.50;;
2396;SDS011;1209;48.410;9.054;2022-11-14T06:30:55;6.17;;;3.93;;
2396;SDS011;1209;48.410;9.054;2022-11-14T06:33:21;4.85;;;4.38;;
2396;SDS011;1209;48.410;9.054;2022-11-14T06:35:47;5.13;;;4.53;;
2396;SDS011;1209;48.410;9.054;2022-11-14T06:38:12;7.07;;;4.87;;
2396;SDS011;1209;48.410;9.054;2022-11-14T06:40:37;5.10;;;4.20;;
2396;SDS011;1209;48.410;9.054;2022-11-14T06:43:02;5.30;;;4.60;;
2396;SDS011;1209;48.410;9.054;2022-11-14T06:45:28;5.23;;;4.70;;
2396;SDS011;1209;48.410;9.054;2022-11-14T06:47:56;5.10;;;4.53;;
2396;SDS011;1209;48.410;9.054;2022-11-14T06:50:22;3.72;;;3.42;;
2396;SDS011;1209;48.410;9.054;2022-11-14T06:52:48;5.00;;;4.50;;
2396;SDS011;1209;48.410;9.054;2022-11-14T06:55:13;7.37;;;5.13;;
2396;SDS011;1209;48.410;9.054;2022-11-14T06:57:38;5.93;;;5.23;;
2396;SDS011;1209;48.410;9.054;2022-11-14T07:00:04;6.30;;;5.07;;
2396;SDS011;1209;48.410;9.054;2022-11-14T07:02:29;4.90;;;4.40;;
2396;SDS011;1209;48.410;9.054;2022-11-14T07:04:55;7.00;;;4.87;;
2396;SDS011;1209;48.410;9.054;2022-11-14T07:07:20;7.73;;;5.07;;
2396;SDS011;1209;48.410;9.054;2022-11-14T07:09:45;7.63;;;6.10;;
2396;SDS011;1209;48.410;9.054;2022-11-14T07:12:11;10.13;;;5.70;;
2396;SDS011;1209;48.410;9.054;2022-11-14T07:14:36;9.10;;;5.80;;
2396;SDS011;1209;48.410;9.054;2022-11-14T07:17:01;11.23;;;8.27;;
2396;SDS011;1209;48.410;9.054;2022-11-14T07:19:27;7.47;;;3.42;;
2396;SDS011;1209;48.410;9.054;2022-11-14T07:21:53;2.23;;;2.03;;
2396;SDS011;1209;48.410;9.054;2022-11-14T07:24:18;2.60;;;2.03;;
2396;SDS011;1209;48.410;9.054;2022-11-14T07:26:44;2.60;;;2.30;;
2396;SDS011;1209;48.410;9.054;2022-11-14T07:29:09;2.00;;;1.80;;
2396;SDS011;1209;48.410;9.054;2022-11-14T07:31:35;1.60;;;1.50;;
2396;SDS011;1209;48.410;9.054;2022-11-14T07:34:00;1.77;;;1.67;;
2396;SDS011;1209;48.410;9.054;2022-11-14T07:36:25;3.20;;;1.80;;
2396;SDS011;1209;48.410;9.054;2022-11-14T07:38:51;1.17;;;1.17;;
2396;SDS011;1209;48.410;9.054;2022-11-14T07:41:16;1.73;;;1.63;;
2396;SDS011;1209;48.410;9.054;2022-11-14T07:43:42;1.63;;;1.53;;
2396;SDS011;1209;48.410;9.054;2022-11-14T07:46:15;9.40;;;1.47;;
2396;SDS011;1209;48.410;9.054;2022-11-14T07:48:41;1.87;;;1.53;;
2396;SDS011;1209;48.410;9.054;2022-11-14T07:51:16;2.00;;;1.80;;
2396;SDS011;1209;48.410;9.054;2022-11-14T07:53:43;3.83;;;1.60;;
2396;SDS011;1209;48.410;9.054;2022-11-14T07:56:09;1.70;;;1.50;;
2396;SDS011;1209;48.410;9.054;2022-11-14T07:58:35;4.50;;;1.90;;
2396;SDS011;1209;48.410;9.054;2022-11-14T08:01:02;2.80;;;2.13;;
2396;SDS011;1209;48.410;9.054;2022-11-14T08:03:28;1.53;;;1.43;;
2396;SDS011;1209;48.410;9.054;2022-11-14T08:08:27;1.63;;;1.40;;
2396;SDS011;1209;48.410;9.054;2022-11-14T08:10:54;1.70;;;1.60;;
2396;SDS011;1209;48.410;9.054;2022-11-14T08:13:20;1.63;;;1.50;;
2396;SDS011;1209;48.410;9.054;2022-11-14T08:15:45;1.50;;;1.40;;
2396;SDS011;1209;48.410;9.054;2022-11-14T08:18:11;1.70;;;1.50;;
2396;SDS011;1209;48.410;9.054;2022-11-14T08:20:36;1.90;;;1.40;;
2396;SDS011;1209;48.410;9.054;2022-11-14T08:23:02;1.53;;;1.43;;
2396;SDS011;1209;48.410;9.054;2022-11-14T08:25:28;1.83;;;1.50;;
2396;SDS011;1209;48.410;9.054;2022-11-14T08:27:54;2.10;;;1.50;;
2396;SDS011;1209;48.410;9.054;2022-11-14T08:30:19;1.00;;;1.00;;
2396;SDS011;1209;48.410;9.054;2022-11-14T08:32:44;1.37;;;1.27;;
2396;SDS011;1209;48.410;9.054;2022-11-14T08:35:10;1.50;;;1.40;;
2396;SDS011;1209;48.410;9.054;2022-11-14T08:37:35;2.40;;;2.20;;
2396;SDS011;1209;48.410;9.054;2022-11-14T08:40:01;2.30;;;1.57;;
2396;SDS011;1209;48.410;9.054;2022-11-14T08:42:27;1.70;;;1.50;;
2396;SDS011;1209;48.410;9.054;2022-11-14T08:44:52;1.60;;;1.50;;
2396;SDS011;1209;48.410;9.054;2022-11-14T08:47:18;1.30;;;1.30;;
2396;SDS011;1209;48.410;9.054;2022-11-14T08:49:43;1.10;;;1.10;;
2396;SDS011;1209;48.410;9.054;2022-11-14T08:52:08;1.73;;;1.30;;
2396;SDS011;1209;48.410;9.054;2022-11-14T08:54:34;1.90;;;1.63;;
2396;SDS011;1209;48.410;9.054;2022-11-14T08:56:59;0.90;;;0.90;;
2396;SDS011;1209;48.410;9.054;2022-11-14T08:59:24;1.40;;;1.30;;
2396;SDS011;1209;48.410;9.054;2022-11-14T09:01:49;1.93;;;1.73;;
2396;SDS011;1209;48.410;9.054;2022-11-14T09:04:15;2.23;;;1.43;;
2396;SDS011;1209;48.410;9.054;2022-11-14T09:06:40;1.47;;;1.47;;
2396;SDS011;1209;48.410;9.054;2022-11-14T09:09:06;1.90;;;1.40;;
2396;SDS011;1209;48.410;9.054;2022-11-14T09:11:31;2.40;;;1.77;;
2396;SDS011;1209;48.410;9.054;2022-11-14T09:13:56;1.20;;;1.20;;
2396;SDS011;1209;48.410;9.054;2022-11-14T09:16:22;1.27;;;1.17;;
2396;SDS011;1209;48.410;9.054;2022-11-14T09:18:47;1.80;;;1.67;;
2396;SDS011;1209;48.410;9.054;2022-11-14T09:21:13;2.23;;;1.20;;
2396;SDS011;1209;48.410;9.054;2022-11-14T09:23:38;0.93;;;0.93;;
2396;SDS011;1209;48.410;9.054;2022-11-14T09:26:04;2.73;;;1.20;;
2396;SDS011;1209;48.410;9.054;2022-11-14T09:28:30;1.37;;;1.30;;
2396;SDS011;1209;48.410;9.054;2022-11-14T09:31:13;1.20;;;1.10;;
2396;SDS011;1209;48.410;9.054;2022-11-14T09:33:39;0.87;;;0.87;;
2396;SDS011;1209;48.410;9.054;2022-11-14T09:36:05;1.03;;;1.03;;
2396;SDS011;1209;48.410;9.054;2022-11-14T09:38:32;1.37;;;1.27;;
2396;SDS011;1209;48.410;9.054;2022-11-14T09:46:16;2.00;;;1.20;;
2396;SDS011;1209;48.410;9.054;2022-11-14T09:48:46;1.23;;;1.10;;
2396;SDS011;1209;48.410;9.054;2022-11-14T09:51:16;1.13;;;1.13;;
2396;SDS011;1209;48.410;9.054;2022-11-14T09:53:52;1.27;;;1.17;;
2396;SDS011;1209;48.410;9.054;2022-11-14T09:56:23;1.17;;;1.07;;
2396;SDS011;1209;48.410;9.054;2022-11-14T09:58:50;1.40;;;1.30;;
2396;SDS011;1209;48.410;9.054;2022-11-14T10:06:48;1.37;;;1.33;;
2396;SDS011;1209;48.410;9.054;2022-11-14T10:09:29;1.10;;;1.10;;
2396;SDS011;1209;48.410;9.054;2022-11-14T10:12:10;0.90;;;0.90;;
2396;SDS011;1209;48.410;9.054;2022-11-14T10:14:46;2.10;;;1.20;;
2396;SDS011;1209;48.410;9.054;2022-11-14T10:20:08;1.30;;;1.20;;
2396;SDS011;1209;48.410;9.054;2022-11-14T10:25:28;0.80;;;0.80;;
2396;SDS011;1209;48.410;9.054;2022-11-14T10:30:55;5.10;;;2.63;;
2396;SDS011;1209;48.410;9.054;2022-11-14T10:39:21;0.97;;;0.97;;
2396;SDS011;1209;48.410;9.054;2022-11-14T10:41:54;1.10;;;1.10;;
2396;SDS011;1209;48.410;9.054;2022-11-14T10:44:25;0.77;;;0.77;;
2396;SDS011;1209;48.410;9.054;2022-11-14T10:46:57;1.23;;;1.00;;
2396;SDS011;1209;48.410;9.054;2022-11-14T10:49:28;2.40;;;1.50;;
2396;SDS011;1209;48.410;9.054;2022-11-14T10:51:56;0.80;;;0.80;;
2396;SDS011;1209;48.410;9.054;2022-11-14T10:54:30;1.30;;;1.23;;
2396;SDS011;1209;48.410;9.054;2022-11-14T10:57:11;1.00;;;1.00;;
2396;SDS011;1209;48.410;9.054;2022-11-14T10:59:39;1.20;;;1.10;;
2396;SDS011;1209;48.410;9.054;2022-11-14T11:02:05;1.13;;;1.10;;
2396;SDS011;1209;48.410;9.054;2022-11-14T11:04:31;1.70;;;1.30;;
2396;SDS011;1209;48.410;9.054;2022-11-14T11:09:33;0.70;;;0.70;;
2396;SDS011;1209;48.410;9.054;2022-11-14T11:12:20;5.00;;;1.50;;
2396;SDS011;1209;48.410;9.054;2022-11-14T11:23:02;1.10;;;1.10;;
2396;SDS011;1209;48.410;9.054;2022-11-14T11:25:30;1.53;;;1.43;;
2396;SDS011;1209;48.410;9.054;2022-11-14T11:28:02;1.50;;;1.40;;
2396;SDS011;1209;48.410;9.054;2022-11-14T11:30:30;1.30;;;1.20;;
2396;SDS011;1209;48.410;9.054;2022-11-14T11:32:55;1.43;;;1.33;;
2396;SDS011;1209;48.410;9.054;2022-11-14T11:35:20;1.07;;;1.00;;
2396;SDS011;1209;48.410;9.054;2022-11-14T11:37:55;1.20;;;1.20;;
2396;SDS011;1209;48.410;9.054;2022-11-14T11:40:25;1.00;;;1.00;;
2396;SDS011;1209;48.410;9.054;2022-11-14T11:42:56;1.10;;;1.10;;
2396;SDS011;1209;48.410;9.054;2022-11-14T11:45:37;1.53;;;1.43;;
2396;SDS011;1209;48.410;9.054;2022-11-14T11:50:51;1.10;;;1.07;;
2396;SDS011;1209;48.410;9.054;2022-11-14T11:53:22;1.40;;;1.30;;
2396;SDS011;1209;48.410;9.054;2022-11-14T11:55:53;1.33;;;1.23;;
2396;SDS011;1209;48.410;9.054;2022-11-14T11:58:25;2.07;;;1.30;;
2396;SDS011;1209;48.410;9.054;2022-11-14T12:00:55;1.57;;;1.20;;
2396;SDS011;1209;48.410;9.054;2022-11-14T12:03:20;1.70;;;1.27;;
2396;SDS011;1209;48.410;9.054;2022-11-14T12:08:42;1.40;;;1.30;;
2396;SDS011;1209;48.410;9.054;2022-11-14T12:11:26;1.00;;;1.00;;
2396;SDS011;1209;48.410;9.054;2022-11-14T12:22:09;1.60;;;1.47;;
2396;SDS011;1209;48.410;9.054;2022-11-14T12:28:01;2.80;;;1.50;;
2396;SDS011;1209;48.410;9.054;2022-11-14T12:30:31;1.40;;;1.30;;
2396;SDS011;1209;48.410;9.054;2022-11-14T12:35:28;1.63;;;1.50;;
2396;SDS011;1209;48.410;9.054;2022-11-14T12:37:56;1.30;;;1.20;;
2396;SDS011;1209;48.410;9.054;2022-11-14T12:40:28;1.30;;;1.20;;
2396;SDS011;1209;48.410;9.054;2022-11-14T12:42:56;3.43;;;2.97;;
2396;SDS011;1209;48.410;9.054;2022-11-14T12:48:28;2.30;;;1.60;;
2396;SDS011;1209;48.410;9.054;2022-11-14T12:50:55;1.90;;;1.60;;
2396;SDS011;1209;48.410;9.054;2022-11-14T13:11:54;2.20;;;1.80;;
2396;SDS011;1209;48.410;9.054;2022-11-14T13:14:51;2.30;;;1.80;;
2396;SDS011;1209;48.410;9.054;2022-11-14T13:17:37;1.30;;;1.07;;
2396;SDS011;1209;48.410;9.054;2022-11-14T13:20:31;2.00;;;1.40;;
2396;SDS011;1209;48.410;9.054;2022-11-14T13:31:05;1.80;;;1.43;;
2396;SDS011;1209;48.410;9.054;2022-11-14T13:33:40;1.50;;;1.40;;
2396;SDS011;1209;48.410;9.054;2022-11-14T13:36:30;1.80;;;1.70;;
2396;SDS011;1209;48.410;9.054;2022-11-14T13:50:54;1.77;;;1.53;;
2396;SDS011;1209;48.410;9.054;2022-11-14T13:53:25;2.17;;;1.93;;
2396;SDS011;1209;48.410;9.054;2022-11-14T14:09:31;1.73;;;1.63;;
2396;SDS011;1209;48.410;9.054;2022-11-14T14:12:30;2.50;;;1.60;;
2396;SDS011;1209;48.410;9.054;2022-11-14T14:15:12;10.70;;;1.83;;
2396;SDS011;1209;48.410;9.054;2022-11-14T14:20:36;2.10;;;1.57;;
2396;SDS011;1209;48.410;9.054;2022-11-14T14:31:35;1.27;;;1.20;;
2396;SDS011;1209;48.410;9.054;2022-11-14T14:34:02;6.30;;;2.37;;
2396;SDS011;1209;48.410;9.054;2022-11-14T14:36:28;2.00;;;1.77;;
2396;SDS011;1209;48.410;9.054;2022-11-14T14:41:49;2.90;;;1.90;;
2396;SDS011;1209;48.410;9.054;2022-11-14T14:46:56;2.50;;;1.90;;
2396;SDS011;1209;48.410;9.054;2022-11-14T14:51:47;2.67;;;2.20;;
2396;SDS011;1209;48.410;9.054;2022-11-14T14:54:23;2.40;;;1.88;;
2396;SDS011;1209;48.410;9.054;2022-11-14T14:56:57;2.40;;;1.93;;
2396;SDS011;1209;48.410;9.054;2022-11-14T14:59:24;2.53;;;1.83;;
2396;SDS011;1209;48.410;9.054;2022-11-14T15:01:51;4.10;;;2.63;;
2396;SDS011;1209;48.410;9.054;2022-11-14T15:04:18;6.37;;;2.70;;
2396;SDS011;1209;48.410;9.054;2022-11-14T15:06:46;3.87;;;2.40;;
2396;SDS011;1209;48.410;9.054;2022-11-14T15:11:45;3.30;;;3.00;;
2396;SDS011;1209;48.410;9.054;2022-11-14T15:14:19;4.83;;;2.63;;
2396;SDS011;1209;48.410;9.054;2022-11-14T15:16:47;3.33;;;2.67;;
2396;SDS011;1209;48.410;9.054;2022-11-14T15:19:15;3.50;;;2.27;;
2396;SDS011;1209;48.410;9.054;2022-11-14T15:21:44;4.00;;;2.93;;
2396;SDS011;1209;48.410;9.054;2022-11-14T15:26:40;2.10;;;1.73;;
2396;SDS011;1209;48.410;9.054;2022-11-14T15:31:57;5.07;;;2.70;;
2396;SDS011;1209;48.410;9.054;2022-11-14T15:34:26;2.23;;;1.97;;
2396;SDS011;1209;48.410;9.054;2022-11-14T15:39:43;4.00;;;2.40;;
2396;SDS011;1209;48.410;9.054;2022-11-14T15:44:53;2.20;;;2.00;;
2396;SDS011;1209;48.410;9.054;2022-11-14T15:50:02;3.13;;;2.10;;
2396;SDS011;1209;48.410;9.054;2022-11-14T15:52:35;4.30;;;3.27;;
2396;SDS011;1209;48.410;9.054;2022-11-14T15:55:03;10.70;;;3.00;;
2396;SDS011;1209;48.410;9.054;2022-11-14T15:57:37;4.67;;;2.70;;
2396;SDS011;1209;48.410;9.054;2022-11-14T16:00:02;3.43;;;2.60;;
2396;SDS011;1209;48.410;9.054;2022-11-14T16:02:29;1.93;;;1.83;;
2396;SDS011;1209;48.410;9.054;2022-11-14T16:04:57;2.17;;;1.97;;
2396;SDS011;1209;48.410;9.054;2022-11-14T16:07:24;3.63;;;2.00;;
2396;SDS011;1209;48.410;9.054;2022-11-14T16:09:50;9.80;;;2.40;;
2396;SDS011;1209;48.410;9.054;2022-11-14T16:12:15;5.97;;;2.20;;
2396;SDS011;1209;48.410;9.054;2022-11-14T16:14:41;3.80;;;2.23;;
2396;SDS011;1209;48.410;9.054;2022-11-14T16:17:13;5.43;;;2.17;;
2396;SDS011;1209;48.410;9.054;2022-11-14T16:19:39;2.40;;;1.73;;
2396;SDS011;1209;48.410;9.054;2022-11-14T16:22:07;2.87;;;2.17;;
2396;SDS011;1209;48.410;9.054;2022-11-14T16:24:35;2.90;;;2.50;;
2396;SDS011;1209;48.410;9.054;2022-11-14T16:27:01;2.03;;;1.83;;
2396;SDS011;1209;48.410;9.054;2022-11-14T16:29:26;2.57;;;2.07;;
2396;SDS011;1209;48.410;9.054;2022-11-14T16:31:52;4.67;;;2.10;;
2396;SDS011;1209;48.410;9.054;2022-11-14T16:34:22;5.97;;;2.80;;
2396;SDS011;1209;48.410;9.054;2022-11-14T16:36:53;2.87;;;1.77;;
2396;SDS011;1209;48.410;9.054;2022-11-14T16:39:21;3.23;;;2.50;;
2396;SDS011;1209;48.410;9.054;2022-11-14T16:41:47;2.70;;;2.37;;
2396;SDS011;1209;48.410;9.054;2022-11-14T16:44:13;2.90;;;1.90;;
2396;SDS011;1209;48.410;9.054;2022-11-14T16:46:41;5.10;;;2.80;;
2396;SDS011;1209;48.410;9.054;2022-11-14T16:49:07;2.70;;;2.43;;
2396;SDS011;1209;48.410;9.054;2022-11-14T16:51:36;2.20;;;2.00;;
2396;SDS011;1209;48.410;9.054;2022-11-14T16:54:02;2.93;;;2.57;;
2396;SDS011;1209;48.410;9.054;2022-11-14T16:56:27;2.67;;;2.13;;
2396;SDS011;1209;48.410;9.054;2022-11-14T16:58:54;3.27;;;1.80;;
2396;SDS011;1209;48.410;9.054;2022-11-14T17:01:20;3.17;;;2.27;;
2396;SDS011;1209;48.410;9.054;2022-11-14T17:03:46;3.23;;;1.90;;
2396;SDS011;1209;48.410;9.054;2022-11-14T17:06:11;4.00;;;2.53;;
2396;SDS011;1209;48.410;9.054;2022-11-14T17:08:36;4.27;;;2.97;;
2396;SDS011;1209;48.410;9.054;2022-11-14T17:11:06;6.03;;;4.13;;
2396;SDS011;1209;48.410;9.054;2022-11-14T17:13:33;3.70;;;3.07;;
2396;SDS011;1209;48.410;9.054;2022-11-14T17:15:59;3.83;;;2.77;;
2396;SDS011;1209;48.410;9.054;2022-11-14T17:18:25;3.43;;;3.13;;
2396;SDS011;1209;48.410;9.054;2022-11-14T17:20:51;10.73;;;3.93;;
2396;SDS011;1209;48.410;9.054;2022-11-14T17:23:17;3.77;;;3.10;;
2396;SDS011;1209;48.410;9.054;2022-11-14T17:25:42;4.53;;;2.90;;
2396;SDS011;1209;48.410;9.054;2022-11-14T17:28:08;4.20;;;3.03;;
2396;SDS011;1209;48.410;9.054;2022-11-14T17:30:33;3.73;;;2.80;;
2396;SDS011;1209;48.410;9.054;2022-11-14T17:32:58;3.20;;;2.90;;
2396;SDS011;1209;48.410;9.054;2022-11-14T17:35:23;4.13;;;3.30;;
2396;SDS011;1209;48.410;9.054;2022-11-14T17:37:49;4.20;;;3.00;;
2396;SDS011;1209;48.410;9.054;2022-11-14T17:40:14;8.93;;;4.77;;
2396;SDS011;1209;48.410;9.054;2022-11-14T17:42:39;9.20;;;4.80;;
2396;SDS011;1209;48.410;9.054;2022-11-14T17:45:05;6.87;;;4.87;;
2396;SDS011;1209;48.410;9.054;2022-11-14T17:47:30;5.97;;;4.60;;